Time;durP1;ratioP1;P1;durP2;ratioP2;P2;SDS_P1;SDS_P2;PMS_P1;PMS_P2;Temp;Humidity;BMP_temperature;BMP_pressure;BME280_temperature;BME280_humidity;BME280_pressure;Samples;Min_cycle;Max_cycle;Signal;HPM_P1;HPM_P2
2023/10/27 04:07:38;;;;;;;5.30;3.22;;;;;;;16.14;100.00;98497.56;5603904;31;81512;-62
2023/10/27 04:10:41;;;;;;;6.95;4.30;;;;;;;16.14;100.00;98497.56;5589570;31;33354;-62
2023/10/27 04:13:43;;;;;;;7.93;5.03;;;;;;;15.73;100.00;98486.50;5603298;31;33840;-63
2023/10/27 04:16:46;;;;;;;6.90;4.07;;;;;;;15.81;100.00;98481.97;5591650;31;33571;-62
2023/10/27 04:19:50;;;;;;;5.20;3.42;;;;;;;15.78;100.00;98480.78;5583684;32;33569;-63
2023/10/27 04:22:52;;;;;;;6.70;3.58;;;;;;;15.82;100.00;98476.19;5583413;31;33540;-63
2023/10/27 04:25:54;;;;;;;5.18;3.15;;;;;;;15.77;100.00;98471.13;5583355;32;33604;-62
2023/10/27 04:28:57;;;;;;;12.07;3.30;;;;;;;15.80;100.00;98459.59;5601354;31;33978;-63
2023/10/27 04:31:59;;;;;;;5.93;3.37;;;;;;;15.85;100.00;98447.69;5602410;31;33676;-63
2023/10/27 04:35:02;;;;;;;5.60;2.80;;;;;;;16.01;100.00;98439.44;5599576;31;33544;-62
2023/10/27 04:38:04;;;;;;;4.25;2.47;;;;;;;16.06;100.00;98441.81;5595273;31;33810;-62
2023/10/27 04:41:07;;;;;;;3.35;2.30;;;;;;;16.10;100.00;98437.25;5599804;31;33552;-62
2023/10/27 04:44:10;;;;;;;4.12;2.50;;;;;;;16.10;100.00;98419.12;5602910;31;33698;-63
2023/10/27 04:47:12;;;;;;;5.00;2.70;;;;;;;16.06;100.00;98412.91;5602952;31;33930;-62
2023/10/27 04:50:14;;;;;;;6.20;2.80;;;;;;;16.04;100.00;98409.00;5602438;31;33719;-62
2023/10/27 04:53:18;;;;;;;3.45;2.67;;;;;;;16.05;100.00;98399.72;5603085;31;34373;-63
2023/10/27 04:56:20;;;;;;;3.17;2.47;;;;;;;16.31;100.00;98388.13;5602725;31;33673;-62
2023/10/27 04:59:22;;;;;;;3.45;2.20;;;;;;;16.32;100.00;98373.44;5602524;31;34328;-62
2023/10/27 05:02:24;;;;;;;3.58;2.25;;;;;;;16.23;100.00;98372.97;5601773;31;34237;-63
2023/10/27 05:05:27;;;;;;;5.55;2.30;;;;;;;16.26;100.00;98359.47;5590098;31;33755;-63
2023/10/27 05:08:29;;;;;;;4.25;2.40;;;;;;;16.28;100.00;98361.81;5583927;31;33602;-62
2023/10/27 05:11:32;;;;;;;4.18;2.03;;;;;;;16.08;100.00;98361.16;5594844;31;33667;-62
2023/10/27 05:14:34;;;;;;;5.45;1.90;;;;;;;16.19;100.00;98352.06;5583889;31;33704;-62
2023/10/27 05:17:37;;;;;;;3.72;2.00;;;;;;;16.05;100.00;98351.06;5580503;31;33562;-63
2023/10/27 05:20:39;;;;;;;4.62;2.03;;;;;;;16.07;100.00;98346.09;5571300;31;34371;-62
2023/10/27 05:23:42;;;;;;;7.22;2.62;;;;;;;16.18;100.00;98336.97;5576844;31;33276;-62
2023/10/27 05:26:44;;;;;;;4.12;2.17;;;;;;;16.10;100.00;98335.34;5569368;31;34336;-62
2023/10/27 05:29:46;;;;;;;4.97;2.08;;;;;;;16.14;100.00;98329.97;5570829;31;33122;-62
2023/10/27 05:32:48;;;;;;;4.72;2.37;;;;;;;16.09;100.00;98339.19;5576341;31;33544;-62
2023/10/27 05:35:51;;;;;;;3.75;2.20;;;;;;;16.03;100.00;98335.25;5585573;31;33697;-62
2023/10/27 05:38:53;;;;;;;5.57;2.47;;;;;;;16.19;100.00;98330.44;5573598;31;33559;-62
2023/10/27 05:41:56;;;;;;;3.72;2.22;;;;;;;16.11;100.00;98322.59;5569279;32;33709;-62
2023/10/27 05:44:58;;;;;;;3.25;2.05;;;;;;;16.20;100.00;98318.47;5579071;31;33698;-62
2023/10/27 05:48:00;;;;;;;6.22;1.90;;;;;;;16.26;100.00;98312.72;5572532;31;34270;-61
2023/10/27 05:51:03;;;;;;;4.62;2.00;;;;;;;16.19;100.00;98308.00;5575357;31;34315;-62
2023/10/27 05:54:06;;;;;;;4.87;2.05;;;;;;;16.08;100.00;98305.19;5584134;31;33023;-62
2023/10/27 05:57:08;;;;;;;4.22;2.30;;;;;;;16.07;100.00;98309.03;5578692;31;33954;-62
2023/10/27 06:00:11;;;;;;;4.40;2.10;;;;;;;16.04;100.00;98307.06;5584680;31;33756;-62
2023/10/27 06:03:14;;;;;;;4.68;2.25;;;;;;;16.10;100.00;98307.53;5586902;31;34354;-61
2023/10/27 06:06:18;;;;;;;5.18;2.00;;;;;;;16.09;100.00;98297.84;5573969;31;33712;-62
2023/10/27 06:09:22;;;;;;;3.92;2.47;;;;;;;16.11;100.00;98287.47;5580770;31;34262;-61
2023/10/27 06:12:26;;;;;;;6.15;2.05;;;;;;;16.20;100.00;98293.37;5577821;31;34339;-62
2023/10/27 06:15:28;;;;;;;4.87;2.35;;;;;;;16.24;100.00;98285.28;5578006;31;33767;-61
2023/10/27 06:18:30;;;;;;;4.53;2.30;;;;;;;16.17;100.00;98275.19;5584910;31;34299;-62
2023/10/27 06:21:33;;;;;;;4.10;2.53;;;;;;;16.26;100.00;98264.84;5582896;31;34362;-62
2023/10/27 06:24:35;;;;;;;5.43;2.60;;;;;;;16.18;100.00;98257.81;5576883;31;33719;-61
2023/10/27 06:27:38;;;;;;;4.90;3.10;;;;;;;16.11;100.00;98250.38;5575941;31;33660;-62
2023/10/27 06:30:41;;;;;;;8.85;2.55;;;;;;;16.12;100.00;98238.41;5575059;31;33707;-61
2023/10/27 06:33:43;;;;;;;5.35;3.05;;;;;;;16.01;100.00;98245.63;5579633;31;34400;-61
2023/10/27 06:36:47;;;;;;;5.95;3.45;;;;;;;16.07;100.00;98249.56;5578590;31;34304;-61
2023/10/27 06:39:50;;;;;;;5.87;3.62;;;;;;;16.06;100.00;98249.94;5582735;31;33656;-61
2023/10/27 06:42:52;;;;;;;3.92;2.83;;;;;;;16.04;100.00;98244.12;5586924;31;33874;-61
2023/10/27 06:45:55;;;;;;;5.97;3.00;;;;;;;16.15;100.00;98231.50;5585456;31;34298;-63
2023/10/27 06:48:57;;;;;;;5.95;2.92;;;;;;;16.00;100.00;98227.88;5584161;31;33419;-62
2023/10/27 06:52:00;;;;;;;4.60;3.05;;;;;;;15.98;100.00;98236.34;5579867;31;34291;-61
2023/10/27 06:55:03;;;;;;;4.82;2.58;;;;;;;16.06;100.00;98231.00;5577183;31;33619;-61
2023/10/27 06:58:07;;;;;;;7.43;2.87;;;;;;;16.05;100.00;98224.84;5582523;31;33550;-62
2023/10/27 07:01:09;;;;;;;4.70;2.62;;;;;;;16.14;100.00;98216.44;5576687;31;33792;-60
2023/10/27 07:04:13;;;;;;;5.57;3.28;;;;;;;16.09;100.00;98205.94;5583669;31;33689;-61
2023/10/27 07:07:15;;;;;;;5.43;3.40;;;;;;;16.27;100.00;98214.25;5572905;31;33166;-60
2023/10/27 07:10:30;;;;;;;4.95;2.92;;;;;;;16.20;100.00;98209.56;5568194;31;34233;-61
2023/10/27 07:13:32;;;;;;;4.93;3.00;;;;;;;16.36;100.00;98207.41;5579066;31;33001;-62
2023/10/27 07:16:35;;;;;;;4.78;3.08;;;;;;;16.36;100.00;98193.91;5580736;31;33659;-61
2023/10/27 07:19:38;;;;;;;4.95;2.95;;;;;;;16.39;100.00;98195.84;5574199;31;33776;-61
2023/10/27 07:22:41;;;;;;;5.97;3.03;;;;;;;16.33;100.00;98189.22;5579137;31;33681;-60
2023/10/27 07:25:43;;;;;;;4.72;2.83;;;;;;;16.37;100.00;98198.16;5580607;31;34226;-61
2023/10/27 07:28:46;;;;;;;8.15;3.10;;;;;;;16.23;100.00;98187.19;5582100;31;33636;-61
2023/10/27 07:31:48;;;;;;;5.97;2.90;;;;;;;16.24;100.00;98191.44;5583023;31;33609;-62
2023/10/27 07:34:51;;;;;;;4.53;3.20;;;;;;;16.47;100.00;98177.00;5581915;31;34354;-62
2023/10/27 07:37:53;;;;;;;3.33;2.33;;;;;;;16.39;100.00;98159.91;5577323;31;33584;-63
2023/10/27 07:40:57;;;;;;;3.90;2.28;;;;;;;16.38;100.00;98155.66;5575254;31;33661;-61
2023/10/27 07:43:59;;;;;;;4.50;2.80;;;;;;;16.30;100.00;98151.34;5580832;31;33522;-61
2023/10/27 07:47:02;;;;;;;4.90;2.62;;;;;;;16.45;100.00;98151.06;5575579;31;34354;-62
2023/10/27 07:50:05;;;;;;;5.45;2.37;;;;;;;16.52;100.00;98142.25;5584173;31;34347;-62
2023/10/27 07:53:09;;;;;;;3.42;2.00;;;;;;;16.33;100.00;98145.97;5573546;31;33516;-61
2023/10/27 07:56:12;;;;;;;4.80;2.40;;;;;;;16.39;100.00;98139.06;5578272;31;33570;-62
2023/10/27 07:59:14;;;;;;;5.75;2.47;;;;;;;16.39;100.00;98138.28;5578767;31;34310;-62
2023/10/27 08:02:17;;;;;;;3.45;2.37;;;;;;;16.49;100.00;98136.81;5575417;31;34259;-62
2023/10/27 08:05:19;;;;;;;7.05;2.30;;;;;;;16.47;100.00;98129.09;5572688;31;34371;-62
2023/10/27 08:08:22;;;;;;;3.80;1.90;;;;;;;16.37;100.00;98133.25;5581326;31;34225;-62
2023/10/27 08:11:25;;;;;;;3.87;2.10;;;;;;;16.38;100.00;98117.81;5580233;31;34252;-62
2023/10/27 08:14:27;;;;;;;5.78;2.20;;;;;;;16.45;100.00;98132.16;5582477;31;33833;-62
2023/10/27 08:17:30;;;;;;;4.93;2.28;;;;;;;16.51;100.00;98116.38;5584629;31;34321;-62
2023/10/27 08:20:32;;;;;;;4.82;2.40;;;;;;;16.52;100.00;98109.78;5577273;31;33559;-62
2023/10/27 08:23:35;;;;;;;4.18;2.25;;;;;;;16.52;100.00;98098.97;5576413;31;33769;-61
2023/10/27 08:26:37;;;;;;;4.45;2.30;;;;;;;16.59;100.00;98099.06;5572751;31;34766;-62
2023/10/27 08:29:40;;;;;;;5.57;2.60;;;;;;;16.71;100.00;98097.97;5578119;31;33652;-62
2023/10/27 08:32:42;;;;;;;4.43;2.17;;;;;;;16.67;100.00;98094.47;5574115;31;33886;-62
2023/10/27 08:35:44;;;;;;;6.25;2.85;;;;;;;16.66;100.00;98090.22;5583169;31;33530;-62
2023/10/27 08:38:47;;;;;;;5.05;2.35;;;;;;;16.59;100.00;98084.75;5583439;31;34334;-62
2023/10/27 08:41:50;;;;;;;4.35;2.55;;;;;;;16.58;100.00;98081.25;5581958;31;34253;-62
2023/10/27 08:44:53;;;;;;;4.70;2.03;;;;;;;16.66;100.00;98072.03;5584273;31;34257;-62
2023/10/27 08:48:00;;;;;;;6.80;2.80;;;;;;;16.62;100.00;98056.94;5576086;31;34318;-62
2023/10/27 08:51:04;;;;;;;6.93;2.33;;;;;;;16.68;100.00;98048.09;5573234;31;34368;-61
2023/10/27 08:54:07;;;;;;;3.60;2.40;;;;;;;16.69;100.00;98035.34;5575386;31;33540;-62
2023/10/27 08:57:13;;;;;;;8.80;2.60;;;;;;;16.59;100.00;98025.25;5581964;31;33637;-62
2023/10/27 09:00:16;;;;;;;7.00;2.50;;;;;;;16.50;100.00;98013.97;5585982;31;34104;-62
2023/10/27 09:03:18;;;;;;;9.07;2.58;;;;;;;16.48;100.00;98013.56;5574677;31;33636;-62
2023/10/27 09:06:21;;;;;;;6.07;2.47;;;;;;;16.42;100.00;98007.72;5582696;31;33713;-62
2023/10/27 09:09:25;;;;;;;4.93;2.00;;;;;;;16.42;100.00;98005.03;5578425;31;33683;-62
2023/10/27 09:12:30;;;;;;;4.45;2.00;;;;;;;16.48;100.00;98003.53;5578020;31;33265;-63
2023/10/27 09:15:47;;;;;;;4.70;2.83;;;;;;;16.54;100.00;97993.12;5573949;31;33644;-63
2023/10/27 09:18:51;;;;;;;5.95;2.62;;;;;;;16.43;100.00;97988.44;5580817;31;33650;-62
2023/10/27 09:21:53;;;;;;;5.32;2.62;;;;;;;16.50;100.00;97985.00;5576604;31;33870;-62
2023/10/27 09:25:17;;;;;;;3.65;1.95;;;;;;;16.47;100.00;97980.34;5586826;31;33799;-62
2023/10/27 09:28:27;;;;;;;4.40;2.42;;;;;;;16.55;100.00;97981.16;5575601;31;34204;-61
2023/10/27 09:31:35;;;;;;;5.35;2.40;;;;;;;16.77;100.00;97966.63;5576213;31;34310;-62
2023/10/27 09:34:37;;;;;;;4.30;2.37;;;;;;;16.71;100.00;97961.94;5570039;31;33367;-62
2023/10/27 09:37:46;;;;;;;4.55;2.42;;;;;;;16.79;100.00;97953.50;5572673;31;34287;-62
2023/10/27 09:40:50;;;;;;;7.30;2.17;;;;;;;16.73;100.00;97948.81;5572383;31;33752;-62
2023/10/27 09:43:52;;;;;;;5.05;2.30;;;;;;;16.89;100.00;97930.34;5571292;31;34403;-62
2023/10/27 09:47:00;;;;;;;4.68;1.98;;;;;;;16.90;100.00;97932.66;5571857;31;33595;-62
2023/10/27 09:50:06;;;;;;;4.25;2.40;;;;;;;16.83;100.00;97912.94;5575537;31;34398;-62
2023/10/27 09:53:09;;;;;;;5.80;2.58;;;;;;;16.73;100.00;97914.41;5581627;31;34316;-62
2023/10/27 09:56:12;;;;;;;7.00;2.33;;;;;;;16.80;100.00;97906.34;5583013;31;33646;-62
2023/10/27 09:59:15;;;;;;;7.05;2.47;;;;;;;16.76;100.00;97902.84;5586028;31;33434;-62
2023/10/27 10:02:18;;;;;;;5.32;2.67;;;;;;;16.76;100.00;97896.69;5578956;31;33677;-63
2023/10/27 10:05:21;;;;;;;6.55;2.60;;;;;;;16.56;100.00;97896.94;5569523;31;33972;-62
2023/10/27 10:08:25;;;;;;;3.40;2.25;;;;;;;16.74;100.00;97886.19;5573685;31;32215;-62
2023/10/27 10:11:58;;;;;;;5.78;2.40;;;;;;;16.76;100.00;97875.81;5577487;31;33803;-62
2023/10/27 10:15:06;;;;;;;6.03;2.53;;;;;;;16.83;100.00;97873.13;5579192;31;33785;-62
2023/10/27 10:18:35;;;;;;;6.53;2.80;;;;;;;16.74;100.00;97874.59;5583305;31;33302;-63
2023/10/27 10:21:43;;;;;;;3.17;2.60;;;;;;;16.86;100.00;97868.88;5585141;31;33146;-62
2023/10/27 10:25:21;;;;;;;5.35;2.60;;;;;;;16.81;100.00;97859.19;5587356;31;33663;-62
2023/10/27 10:28:29;;;;;;;5.50;2.50;;;;;;;16.94;100.00;97843.37;5585336;31;33710;-62
2023/10/27 10:31:32;;;;;;;5.95;2.70;;;;;;;16.78;100.00;97848.34;5573839;31;33678;-62
2023/10/27 10:34:35;;;;;;;6.55;2.92;;;;;;;16.76;100.00;97872.31;5574405;31;33604;-62
2023/10/27 10:37:37;;;;;;;6.80;2.85;;;;;;;16.82;100.00;97831.00;5578985;31;34344;-62
2023/10/27 10:40:50;;;;;;;5.15;2.70;;;;;;;16.80;100.00;97843.34;5574657;31;33675;-62
2023/10/27 10:44:13;;;;;;;6.43;3.03;;;;;;;16.80;100.00;97840.62;5574961;31;33758;-62
2023/10/27 10:47:16;;;;;;;6.07;3.28;;;;;;;16.72;100.00;97839.81;5584527;31;33749;-62
2023/10/27 10:50:27;;;;;;;12.77;3.10;;;;;;;16.79;100.00;97831.75;5582047;31;33652;-62
2023/10/27 10:53:30;;;;;;;5.20;3.00;;;;;;;16.91;100.00;97831.38;5576701;31;33636;-62
2023/10/27 10:56:33;;;;;;;7.80;3.20;;;;;;;16.77;100.00;97833.28;5570983;31;33475;-62
2023/10/27 10:59:36;;;;;;;7.00;3.12;;;;;;;16.96;100.00;97813.22;5579400;31;33749;-62
2023/10/27 11:02:39;;;;;;;7.12;3.47;;;;;;;16.80;100.00;97813.59;5580930;31;33620;-62
2023/10/27 11:05:41;;;;;;;8.48;3.15;;;;;;;16.79;100.00;97809.34;5576538;31;33519;-62
2023/10/27 11:08:45;;;;;;;5.53;3.30;;;;;;;16.99;100.00;97805.09;5574264;31;33506;-62
2023/10/27 11:11:48;;;;;;;10.68;4.03;;;;;;;17.03;100.00;97805.09;5580601;31;33669;-62
2023/10/27 11:14:50;;;;;;;7.12;3.70;;;;;;;17.04;100.00;97796.59;5577589;31;33913;-62
2023/10/27 11:17:54;;;;;;;12.10;3.80;;;;;;;17.04;100.00;97806.66;5582055;31;33638;-61
2023/10/27 11:20:57;;;;;;;9.57;3.95;;;;;;;17.09;100.00;97809.00;5575705;31;33655;-62
2023/10/27 11:24:06;;;;;;;8.07;3.37;;;;;;;17.04;100.00;97822.88;5581141;31;32954;-62
2023/10/27 11:27:09;;;;;;;5.32;2.72;;;;;;;16.99;100.00;97832.19;5575636;31;33838;-62
2023/10/27 11:30:11;;;;;;;9.02;2.85;;;;;;;16.95;100.00;97844.13;5572568;31;34933;-61
2023/10/27 11:33:14;;;;;;;7.05;3.10;;;;;;;16.88;100.00;97901.72;5577730;31;33590;-61
2023/10/27 11:36:16;;;;;;;5.85;3.00;;;;;;;16.70;100.00;97898.94;5579478;31;31877;-61
2023/10/27 11:39:21;;;;;;;6.95;2.90;;;;;;;16.57;100.00;97912.00;5575653;31;33641;-61
2023/10/27 11:42:24;;;;;;;7.30;2.45;;;;;;;16.49;100.00;97923.97;5579303;31;33767;-61
2023/10/27 11:45:26;;;;;;;5.57;2.72;;;;;;;16.50;100.00;97906.59;5579221;31;33611;-62
2023/10/27 11:48:28;;;;;;;5.03;2.17;;;;;;;16.47;100.00;97901.94;5577890;31;34036;-61
2023/10/27 11:51:31;;;;;;;5.00;1.70;;;;;;;16.54;100.00;97896.53;5583619;31;33711;-61
2023/10/27 11:54:33;;;;;;;4.72;2.00;;;;;;;16.54;100.00;97885.72;5584230;31;33628;-61
2023/10/27 11:57:36;;;;;;;5.10;2.00;;;;;;;16.54;100.00;97914.72;5572954;31;33688;-62
2023/10/27 12:00:38;;;;;;;3.50;1.85;;;;;;;16.59;100.00;97911.66;5583559;31;34306;-61
2023/10/27 12:03:40;;;;;;;3.28;1.52;;;;;;;16.54;100.00;97912.78;5573717;31;33614;-62
2023/10/27 12:06:43;;;;;;;2.33;1.30;;;;;;;16.45;100.00;97910.41;5576076;31;32371;-61
2023/10/27 12:09:46;;;;;;;2.67;1.50;;;;;;;16.47;100.00;97901.94;5573892;31;33722;-61
2023/10/27 12:12:48;;;;;;;3.90;1.33;;;;;;;16.48;100.00;97887.25;5583946;31;33490;-61
2023/10/27 12:15:50;;;;;;;2.37;1.10;;;;;;;16.43;100.00;97928.97;5578062;31;33684;-62
2023/10/27 12:18:57;;;;;;;2.85;0.93;;;;;;;16.38;100.00;97953.63;5580511;31;33866;-62
2023/10/27 12:22:01;;;;;;;2.00;0.90;;;;;;;16.37;100.00;97970.25;5580095;31;33594;-61
2023/10/27 12:25:05;;;;;;;2.20;1.20;;;;;;;16.37;100.00;97968.31;5578880;31;33678;-62
2023/10/27 12:28:08;;;;;;;1.92;1.00;;;;;;;16.20;100.00;97960.88;5588015;31;33680;-62
2023/10/27 12:31:11;;;;;;;1.45;0.90;;;;;;;16.21;100.00;97965.91;5585494;31;34365;-61
2023/10/27 12:34:13;;;;;;;0.88;0.80;;;;;;;16.12;100.00;97989.75;5581219;31;33638;-62
2023/10/27 12:37:16;;;;;;;2.35;1.00;;;;;;;16.12;100.00;97992.47;5581598;31;33943;-62
2023/10/27 12:40:20;;;;;;;2.60;1.10;;;;;;;16.09;100.00;98001.34;5576557;31;34504;-61
2023/10/27 12:43:22;;;;;;;1.35;0.90;;;;;;;16.05;100.00;98010.56;5577596;31;33642;-62
2023/10/27 12:46:25;;;;;;;2.45;1.08;;;;;;;15.94;100.00;98010.47;5577277;31;33419;-62
2023/10/27 12:49:27;;;;;;;1.70;1.02;;;;;;;15.95;100.00;98034.41;5579757;31;34330;-62
2023/10/27 12:52:31;;;;;;;1.10;1.00;;;;;;;15.83;100.00;98050.16;5570223;32;34357;-61
2023/10/27 12:55:33;;;;;;;2.87;0.98;;;;;;;15.76;100.00;98055.44;5580603;31;33922;-61
2023/10/27 12:58:38;;;;;;;1.10;0.90;;;;;;;15.66;100.00;98036.09;5588494;31;33806;-61
2023/10/27 13:01:40;;;;;;;0.90;0.73;;;;;;;15.54;100.00;97995.81;5589104;31;34252;-61
2023/10/27 13:04:43;;;;;;;1.45;0.80;;;;;;;15.51;100.00;97975.72;5588937;31;33715;-62
2023/10/27 13:07:45;;;;;;;2.05;1.23;;;;;;;15.45;100.00;98033.13;5586005;31;34341;-63
2023/10/27 13:10:48;;;;;;;1.23;0.82;;;;;;;15.34;100.00;98102.44;5581417;31;33684;-62
2023/10/27 13:13:51;;;;;;;3.40;0.98;;;;;;;15.35;100.00;98098.56;5586189;31;33705;-62
2023/10/27 13:16:54;;;;;;;1.87;0.95;;;;;;;15.34;100.00;98072.72;5586352;31;33626;-61
2023/10/27 13:19:57;;;;;;;3.83;1.20;;;;;;;15.39;100.00;98054.28;5581858;31;34499;-62
2023/10/27 13:23:01;;;;;;;2.05;0.80;;;;;;;15.52;100.00;98023.16;5589885;31;33686;-61
2023/10/27 13:26:04;;;;;;;1.35;1.00;;;;;;;15.60;100.00;98067.25;5589789;31;34243;-62
2023/10/27 13:29:06;;;;;;;1.90;1.00;;;;;;;15.50;100.00;98038.97;5589661;31;33353;-62
2023/10/27 13:32:08;;;;;;;1.90;0.93;;;;;;;15.45;100.00;98076.31;5586807;31;33651;-61
2023/10/27 13:35:14;;;;;;;1.15;0.85;;;;;;;15.37;100.00;98156.47;5589661;31;33669;-62
2023/10/27 13:38:16;;;;;;;1.17;0.93;;;;;;;15.27;100.00;98103.13;5585211;31;33676;-64
2023/10/27 13:41:21;;;;;;;0.95;0.82;;;;;;;15.31;100.00;98157.91;5588891;31;33734;-62
2023/10/27 13:44:27;;;;;;;1.40;0.82;;;;;;;15.21;100.00;98101.88;5589251;31;33725;-63
2023/10/27 13:47:32;;;;;;;1.67;0.98;;;;;;;15.13;100.00;98113.72;5585191;31;33613;-61
2023/10/27 13:50:36;;;;;;;1.45;0.90;;;;;;;15.20;100.00;98135.41;5588741;31;34431;-61
2023/10/27 13:53:38;;;;;;;1.67;1.00;;;;;;;14.98;100.00;98078.44;5579847;31;33770;-61
2023/10/27 13:56:40;;;;;;;2.35;1.20;;;;;;;14.94;100.00;98093.81;5588901;31;33582;-61
2023/10/27 13:59:43;;;;;;;2.35;0.98;;;;;;;14.93;100.00;98105.75;5589384;31;33709;-61
2023/10/27 14:02:45;;;;;;;1.85;1.20;;;;;;;14.93;100.00;98116.53;5589386;31;33968;-63
2023/10/27 14:05:49;;;;;;;2.65;1.30;;;;;;;14.92;100.00;98127.69;5589304;31;34060;-61
2023/10/27 14:08:52;;;;;;;2.97;1.17;;;;;;;14.96;100.00;98136.59;5589026;31;33645;-61
2023/10/27 14:11:56;;;;;;;4.20;1.50;;;;;;;14.93;100.00;98154.31;5589472;31;34400;-61
2023/10/27 14:14:58;;;;;;;1.30;1.10;;;;;;;14.95;100.00;98170.13;5589305;31;34307;-61
2023/10/27 14:18:00;;;;;;;2.85;1.33;;;;;;;14.87;100.00;98182.75;5589419;31;33666;-63
2023/10/27 14:21:04;;;;;;;1.58;0.98;;;;;;;14.94;100.00;98182.06;5589313;31;34393;-61
2023/10/27 14:24:08;;;;;;;2.65;1.10;;;;;;;14.95;100.00;98199.81;5589395;31;33682;-61
2023/10/27 14:27:12;;;;;;;1.92;1.37;;;;;;;14.97;100.00;98198.31;5588966;31;34374;-61
2023/10/27 14:30:15;;;;;;;2.20;1.10;;;;;;;14.94;100.00;98193.63;5588871;31;33641;-61
2023/10/27 14:33:17;;;;;;;1.48;1.00;;;;;;;14.85;100.00;98198.50;5589241;31;34500;-61
2023/10/27 14:36:19;;;;;;;2.40;1.23;;;;;;;14.78;100.00;98212.66;5588850;31;34509;-60
2023/10/27 14:39:22;;;;;;;4.60;1.10;;;;;;;14.79;100.00;98216.13;5588904;31;34320;-60
2023/10/27 14:42:26;;;;;;;3.00;1.17;;;;;;;14.78;99.73;98223.44;5588775;31;33617;-60
2023/10/27 14:45:28;;;;;;;2.25;0.90;;;;;;;14.79;99.58;98235.00;5588849;31;33776;-61
2023/10/27 14:48:31;;;;;;;1.87;1.10;;;;;;;14.88;98.83;98235.53;5587126;31;33879;-62
2023/10/27 14:51:36;;;;;;;2.80;1.40;;;;;;;14.95;98.42;98254.53;5587723;31;33625;-60
2023/10/27 14:54:40;;;;;;;2.08;1.62;;;;;;;14.79;98.09;98235.00;5588702;31;33804;-60
2023/10/27 14:57:45;;;;;;;2.55;1.20;;;;;;;14.72;97.32;98259.94;5588665;31;33712;-60
2023/10/27 15:00:47;;;;;;;3.28;1.30;;;;;;;14.75;95.53;98261.13;5588551;31;33328;-61
2023/10/27 15:03:50;;;;;;;3.78;1.20;;;;;;;14.78;99.73;98282.00;5588529;31;33793;-60
2023/10/27 15:06:52;;;;;;;1.98;1.35;;;;;;;14.78;100.00;98287.38;5588405;31;33632;-61
2023/10/27 15:09:55;;;;;;;3.42;1.30;;;;;;;14.79;97.28;98283.56;5588674;31;33658;-60
2023/10/27 15:12:57;;;;;;;1.60;1.37;;;;;;;14.69;95.26;98303.78;5588638;31;33806;-60
2023/10/27 15:16:04;;;;;;;5.70;1.20;;;;;;;14.65;97.33;98310.28;5588861;31;34169;-60
2023/10/27 15:19:07;;;;;;;3.42;1.45;;;;;;;14.55;96.29;98314.31;5588682;31;33717;-60
2023/10/27 15:22:09;;;;;;;2.37;1.20;;;;;;;14.66;97.36;98338.78;5588580;31;33362;-60
2023/10/27 15:25:12;;;;;;;2.05;1.30;;;;;;;14.63;93.25;98331.41;5588335;31;33764;-60
2023/10/27 15:28:14;;;;;;;4.07;1.40;;;;;;;14.69;97.29;98343.47;5588557;31;33447;-60
2023/10/27 15:31:16;;;;;;;3.22;1.73;;;;;;;14.66;92.87;98328.78;5588622;31;34332;-60
